createdAt,value
2022-12-23T00:01:23.701Z,97094.94
2022-12-23T00:03:51.075Z,97093.19
2022-12-23T00:06:20.448Z,97093.16
2022-12-23T00:08:47.897Z,97098.19
2022-12-23T00:11:18.358Z,97094.56
2022-12-23T00:14:04.335Z,97098.81
2022-12-23T00:16:31.355Z,97095.13
2022-12-23T00:18:58.198Z,97091.56
2022-12-23T00:21:24.982Z,97090.69
2022-12-23T00:23:52.404Z,97089.66
2022-12-23T00:26:24.546Z,97088.59
2022-12-23T00:28:52.281Z,97089.31
2022-12-23T00:31:21.470Z,97091.81
2022-12-23T00:33:51.711Z,97088.19
2022-12-23T00:36:29.049Z,97080.53
2022-12-23T00:39:16.281Z,97079.56
2022-12-23T00:42:02.002Z,97076.06
2022-12-23T00:44:29.340Z,97078.53
2022-12-23T00:46:56.276Z,97079.28
2022-12-23T00:49:41.555Z,97068.94
2022-12-23T00:52:11.789Z,97068.81
2022-12-23T00:54:39.260Z,97072.19
2022-12-23T00:57:06.272Z,97072.03
2022-12-23T00:59:33.844Z,97058.22
2022-12-23T01:02:19.220Z,97059.91
2022-12-23T01:05:05.023Z,97060.72
2022-12-23T01:07:32.403Z,97057.31
2022-12-23T01:09:59.098Z,97061.03
2022-12-23T01:12:26.128Z,97056.69
2022-12-23T01:14:53.048Z,97047.13
2022-12-23T01:17:19.873Z,97046.84
2022-12-23T01:19:46.686Z,97042.63
2022-12-23T01:22:13.630Z,97045.09
2022-12-23T01:24:40.494Z,97045.03
2022-12-23T01:27:07.277Z,97045.81
2022-12-23T01:29:34.226Z,97033.69
2022-12-23T01:32:01.045Z,97037.09
2022-12-23T01:34:34.275Z,97042.19
2022-12-23T01:37:03.311Z,97025.03
2022-12-23T01:39:30.102Z,97037.84
2022-12-23T01:42:15.276Z,97028.22
2022-12-23T01:44:55.619Z,97023.88
2022-12-23T01:47:44.047Z,97023.00
2022-12-23T01:50:20.179Z,97024.75
2022-12-23T01:53:15.190Z,97019.72
2022-12-23T01:55:59.410Z,97023.19
2022-12-23T01:58:36.478Z,97018.03
2022-12-23T02:01:22.493Z,97015.75
2022-12-23T02:03:52.302Z,97023.63
2022-12-23T02:06:42.871Z,97006.41
2022-12-23T02:09:17.896Z,97016.81
2022-12-23T02:12:11.488Z,97009.69
2022-12-23T02:15:14.976Z,97006.31
2022-12-23T02:17:44.657Z,97000.47
2022-12-23T02:20:36.001Z,96995.28
2022-12-23T02:23:52.532Z,96994.19
2022-12-23T02:26:56.327Z,96997.56
2022-12-23T02:29:25.882Z,97003.47
2022-12-23T02:32:10.314Z,97000.81
2022-12-23T02:35:13.975Z,97004.84
2022-12-23T02:37:58.067Z,96992.91
2022-12-23T02:40:33.197Z,96986.09
2022-12-23T02:43:06.922Z,96992.78
2022-12-23T02:45:40.636Z,96988.31
2022-12-23T02:48:32.457Z,96988.16
2022-12-23T02:51:00.946Z,96979.50
2022-12-23T02:53:43.537Z,96976.03
2022-12-23T02:56:13.147Z,96976.72
2022-12-23T02:58:51.576Z,96983.41
2022-12-23T03:01:19.815Z,96980.00
2022-12-23T03:03:48.332Z,96986.13
2022-12-23T03:06:40.913Z,96982.84
2022-12-23T03:09:08.776Z,96974.41
2022-12-23T03:11:54.023Z,96977.69
2022-12-23T03:14:53.013Z,96971.38
2022-12-23T03:17:42.153Z,96972.38
2022-12-23T03:20:32.688Z,96969.72
2022-12-23T03:23:08.939Z,96968.13
2022-12-23T03:25:47.297Z,96973.97
2022-12-23T03:28:23.070Z,96973.28
2022-12-23T03:30:55.160Z,96974.06
2022-12-23T03:33:41.285Z,96979.22
2022-12-23T03:36:17.642Z,96976.34
2022-12-23T03:38:45.601Z,96965.47
2022-12-23T03:41:19.324Z,96978.09
2022-12-23T03:43:53.438Z,96960.22
2022-12-23T03:46:33.105Z,96970.41
2022-12-23T03:49:19.766Z,96966.84
2022-12-23T03:51:56.714Z,96970.34
2022-12-23T03:54:40.183Z,96970.56
2022-12-23T03:57:08.518Z,96962.13
2022-12-23T03:59:39.516Z,96967.22
2022-12-23T04:02:24.300Z,96976.56
2022-12-23T04:04:56.993Z,96978.25
2022-12-23T04:07:47.223Z,96981.53
2022-12-23T04:10:14.708Z,96983.94
2022-12-23T04:12:41.858Z,96980.75
2022-12-23T04:15:13.152Z,96980.00
2022-12-23T04:17:40.460Z,96975.56
2022-12-23T04:20:08.268Z,96977.31
2022-12-23T04:22:35.200Z,96977.41
2022-12-23T04:25:03.145Z,96976.41
2022-12-23T04:27:29.868Z,96974.66
2022-12-23T04:29:56.714Z,96971.38
2022-12-23T04:32:23.585Z,96965.53
2022-12-23T04:34:50.637Z,96975.72
2022-12-23T04:37:17.708Z,96972.38
2022-12-23T04:39:44.490Z,96975.72
2022-12-23T04:42:11.433Z,96969.59
2022-12-23T04:44:38.120Z,96972.06
2022-12-23T04:47:06.770Z,96965.25
2022-12-23T04:49:39.450Z,96974.66
2022-12-23T04:52:06.792Z,96973.78
2022-12-23T04:54:33.605Z,96985.47
2022-12-23T04:57:00.728Z,96984.69
2022-12-23T04:59:27.976Z,96984.00
2022-12-23T05:01:54.968Z,96992.81
2022-12-23T05:04:22.081Z,96991.22
2022-12-23T05:06:49.074Z,96984.94
2022-12-23T05:09:16.057Z,96989.09
2022-12-23T05:11:42.868Z,96984.09
2022-12-23T05:14:12.983Z,96993.66
2022-12-23T05:16:40.207Z,96996.00
2022-12-23T05:19:07.003Z,96996.09
2022-12-23T05:21:33.993Z,96997.91
2022-12-23T05:24:01.103Z,96990.94
2022-12-23T05:26:27.874Z,97010.66
2022-12-23T05:28:55.369Z,97009.97
2022-12-23T05:31:22.269Z,97013.41
2022-12-23T05:33:49.322Z,97013.56
2022-12-23T05:36:16.356Z,97017.66
2022-12-23T05:38:43.356Z,97014.25
2022-12-23T05:41:10.251Z,97021.13
2022-12-23T05:43:37.345Z,97013.56
2022-12-23T05:46:04.401Z,97022.19
2022-12-23T05:48:31.415Z,97026.31
2022-12-23T05:50:58.280Z,97027.09
2022-12-23T05:53:25.349Z,97020.25
2022-12-23T05:55:52.150Z,97034.69
2022-12-23T05:58:18.924Z,97031.28
2022-12-23T06:00:45.767Z,97029.53
2022-12-23T06:03:12.909Z,97033.63
2022-12-23T06:05:40.339Z,97025.88
2022-12-23T06:08:07.137Z,97020.72
2022-12-23T06:10:33.944Z,97022.38
2022-12-23T06:13:00.672Z,97028.47
2022-12-23T06:15:27.739Z,97021.47
2022-12-23T06:17:56.128Z,97034.94
2022-12-23T06:20:23.039Z,97033.34
2022-12-23T06:22:50.185Z,97040.19
2022-12-23T06:25:17.089Z,97023.84
2022-12-23T06:27:43.990Z,97030.53
2022-12-23T06:30:11.030Z,97031.97
2022-12-23T06:32:38.988Z,97030.31
2022-12-23T06:35:07.517Z,97024.53
2022-12-23T06:37:35.392Z,97028.00
2022-12-23T06:40:02.615Z,97023.53
2022-12-23T06:42:29.679Z,97022.56
2022-12-23T06:44:56.667Z,97020.06
2022-12-23T06:47:23.542Z,97019.22
2022-12-23T06:49:51.627Z,97027.72
2022-12-23T06:52:18.615Z,97027.88
2022-12-23T06:54:45.300Z,97023.72
2022-12-23T06:57:12.036Z,97027.88
2022-12-23T06:59:39.181Z,97030.47
2022-12-23T07:02:06.928Z,97028.50
2022-12-23T07:04:33.621Z,97039.75
2022-12-23T07:07:00.377Z,97036.88
2022-12-23T07:09:27.171Z,97035.44
2022-12-23T07:11:53.880Z,97037.19
2022-12-23T07:14:20.621Z,97026.09
2022-12-23T07:16:47.334Z,97028.31
2022-12-23T07:19:14.059Z,97029.22
2022-12-23T07:21:41.051Z,97024.72
2022-12-23T07:24:08.479Z,97019.06
2022-12-23T07:26:35.275Z,97033.78
2022-12-23T07:29:02.357Z,97022.75
2022-12-23T07:31:29.589Z,97032.84
2022-12-23T07:33:56.459Z,97037.91
2022-12-23T07:36:23.135Z,97034.88
2022-12-23T07:38:51.670Z,97036.03
2022-12-23T07:41:18.684Z,97031.97
2022-12-23T07:43:45.783Z,97031.09
2022-12-23T07:46:12.960Z,97032.22
2022-12-23T07:48:42.009Z,97032.41
2022-12-23T07:51:09.014Z,97035.31
2022-12-23T07:53:36.255Z,97030.13
2022-12-23T07:56:03.495Z,97037.28
2022-12-23T07:58:30.238Z,97028.19
2022-12-23T08:01:02.535Z,97031.31
2022-12-23T08:03:29.735Z,97043.78
2022-12-23T08:06:02.218Z,97040.59
2022-12-23T08:08:28.999Z,97040.44
2022-12-23T08:11:05.340Z,97039.03
2022-12-23T08:13:34.504Z,97036.78
2022-12-23T08:16:02.684Z,97046.19
2022-12-23T08:18:34.478Z,97048.09
2022-12-23T08:21:04.205Z,97037.34
2022-12-23T08:23:32.292Z,97035.47
2022-12-23T08:26:00.528Z,97030.88
2022-12-23T08:28:27.953Z,97047.75
2022-12-23T08:30:55.169Z,97032.47
2022-12-23T08:33:22.493Z,97033.28
2022-12-23T08:35:49.251Z,97030.56
2022-12-23T08:38:16.034Z,97019.88
2022-12-23T08:40:43.249Z,97024.97
2022-12-23T08:43:10.135Z,97024.41
2022-12-23T08:45:38.660Z,97024.50
2022-12-23T08:48:06.854Z,97022.66
2022-12-23T08:50:45.060Z,97026.13
2022-12-23T08:53:12.979Z,97015.75
2022-12-23T08:55:42.351Z,97013.63
2022-12-23T08:58:10.609Z,97012.13
2022-12-23T09:00:38.198Z,97013.94
2022-12-23T09:03:05.726Z,97013.16
2022-12-23T09:05:33.689Z,97015.44
2022-12-23T09:08:00.582Z,97004.78
2022-12-23T09:10:27.483Z,96991.56
2022-12-23T09:12:57.694Z,96990.72
2022-12-23T09:15:24.760Z,96988.09
2022-12-23T09:17:51.434Z,96986.66
2022-12-23T09:20:18.062Z,96987.59
2022-12-23T09:22:45.208Z,96987.31
2022-12-23T09:25:11.943Z,96983.00
2022-12-23T09:27:38.879Z,96981.25
2022-12-23T09:30:06.114Z,96981.44
2022-12-23T09:32:33.190Z,96980.69
2022-12-23T09:34:59.909Z,96967.84
2022-12-23T09:37:26.645Z,96966.84
2022-12-23T09:39:53.711Z,96964.47
2022-12-23T09:42:42.073Z,96960.63
2022-12-23T09:45:11.518Z,96964.53
2022-12-23T09:47:38.804Z,96957.25
2022-12-23T09:50:33.536Z,96963.34
2022-12-23T09:53:18.143Z,96966.47
2022-12-23T09:56:02.330Z,96964.81
2022-12-23T09:58:31.744Z,96963.97
2022-12-23T10:01:32.945Z,96954.56
2022-12-23T10:04:03.125Z,96955.94
2022-12-23T10:06:32.248Z,96966.88
2022-12-23T10:09:02.941Z,96960.78
2022-12-23T10:11:34.616Z,96965.06
2022-12-23T10:14:20.511Z,96963.84
2022-12-23T10:16:58.099Z,96956.06
2022-12-23T10:19:46.322Z,96955.94
2022-12-23T10:22:38.685Z,96957.59
2022-12-23T10:25:32.756Z,96951.25
2022-12-23T10:27:59.453Z,96960.06
2022-12-23T10:30:53.980Z,96943.75
2022-12-23T10:33:24.377Z,96949.13
2022-12-23T10:36:20.429Z,96952.06
2022-12-23T10:39:08.696Z,96948.59
2022-12-23T10:41:55.017Z,96948.59
2022-12-23T10:44:42.335Z,96952.59
2022-12-23T10:47:40.428Z,96950.25
2022-12-23T10:50:34.741Z,96941.78
2022-12-23T10:53:06.762Z,96944.97
2022-12-23T10:55:35.907Z,96938.44
2022-12-23T10:58:13.474Z,96937.34
2022-12-23T11:00:43.731Z,96944.38
2022-12-23T11:03:19.382Z,96947.53
2022-12-23T11:05:49.949Z,96947.53
2022-12-23T11:08:17.447Z,96946.44
2022-12-23T11:10:45.111Z,96949.44
2022-12-23T11:13:32.226Z,96940.63
2022-12-23T11:16:13.269Z,96938.66
2022-12-23T11:18:54.038Z,96935.72
2022-12-23T11:21:21.252Z,96938.25
2022-12-23T11:23:48.234Z,96940.63
2022-12-23T11:26:19.895Z,96933.41
2022-12-23T11:28:53.359Z,96933.06
2022-12-23T11:31:28.280Z,96928.88
2022-12-23T11:34:05.276Z,96924.00
2022-12-23T11:36:34.556Z,96928.00
2022-12-23T11:39:01.651Z,96931.63
2022-12-23T11:41:33.928Z,96925.94
2022-12-23T11:44:06.665Z,96921.66
2022-12-23T11:46:34.817Z,96921.66
2022-12-23T11:49:31.564Z,96920.47
2022-12-23T11:52:11.219Z,96926.03
2022-12-23T11:54:39.014Z,96914.16
2022-12-23T11:57:17.086Z,96924.09
2022-12-23T11:59:49.430Z,96924.47
2022-12-23T12:02:39.733Z,96922.75
2022-12-23T12:05:38.587Z,96920.78
2022-12-23T12:08:15.215Z,96921.56
2022-12-23T12:10:42.784Z,96922.09
2022-12-23T12:13:26.088Z,96924.88
2022-12-23T12:16:02.424Z,96915.47
2022-12-23T12:18:29.623Z,96930.72
2022-12-23T12:21:02.237Z,96925.91
2022-12-23T12:23:43.532Z,96925.13
2022-12-23T12:26:30.251Z,96926.00
2022-12-23T12:29:06.936Z,96923.94
2022-12-23T12:31:44.808Z,96931.16
2022-12-23T12:34:14.537Z,96936.16
2022-12-23T12:36:45.990Z,96936.72
2022-12-23T12:39:31.312Z,96943.09
2022-12-23T12:42:06.046Z,96949.44
2022-12-23T12:45:00.313Z,96944.19
2022-12-23T12:48:02.347Z,96949.22
2022-12-23T12:50:33.409Z,96951.97
2022-12-23T12:53:10.314Z,96947.59
2022-12-23T12:55:42.595Z,96946.50
2022-12-23T12:58:20.399Z,96953.69
2022-12-23T13:01:05.785Z,96949.84
2022-12-23T13:03:55.631Z,96951.50
2022-12-23T13:06:56.509Z,96955.38
2022-12-23T13:09:54.551Z,96955.94
2022-12-23T13:12:36.600Z,96964.94
2022-12-23T13:15:17.410Z,96956.22
2022-12-23T13:18:06.618Z,96960.66
2022-12-23T13:20:43.129Z,96970.19
2022-12-23T13:23:42.273Z,96961.63
2022-12-23T13:26:18.267Z,96964.53
2022-12-23T13:28:53.759Z,96968.41
2022-12-23T13:31:57.011Z,96965.34
2022-12-23T13:34:50.259Z,96966.88
2022-12-23T13:37:30.450Z,96969.09
2022-12-23T13:40:25.402Z,96966.88
2022-12-23T13:43:02.072Z,96971.97
2022-12-23T13:45:36.595Z,96970.34
2022-12-23T13:48:15.552Z,96964.25
2022-12-23T13:50:54.957Z,96954.72
2022-12-23T13:53:30.780Z,96962.72
2022-12-23T13:56:19.019Z,96956.22
2022-12-23T13:58:50.084Z,96954.84
2022-12-23T14:01:17.999Z,96958.41
2022-12-23T14:03:45.049Z,96955.09
2022-12-23T14:06:40.836Z,96957.56
2022-12-23T14:09:08.164Z,96954.78
2022-12-23T14:11:34.977Z,96961.00
2022-12-23T14:14:07.052Z,96967.75
2022-12-23T14:16:59.176Z,96969.09
2022-12-23T14:20:08.734Z,96969.09
2022-12-23T14:23:06.112Z,96975.84
2022-12-23T14:25:35.963Z,96970.69
2022-12-23T14:28:29.237Z,96980.00
2022-12-23T14:30:56.668Z,96981.16
2022-12-23T14:33:25.135Z,96993.97
2022-12-23T14:35:58.703Z,96995.44
2022-12-23T14:38:28.622Z,96988.38
2022-12-23T14:41:23.087Z,96983.63
2022-12-23T14:43:56.125Z,96982.72
2022-12-23T14:46:35.507Z,96982.78
2022-12-23T14:49:36.836Z,96985.94
2022-12-23T14:51:51.244Z,96977.03
2022-12-23T14:54:55.273Z,96978.75
2022-12-23T14:57:33.304Z,96980.13
2022-12-23T15:00:04.422Z,96990.84
2022-12-23T15:02:35.967Z,96983.97
2022-12-23T15:05:03.071Z,96982.56
2022-12-23T15:07:37.204Z,96984.94
2022-12-23T15:10:06.186Z,96989.56
2022-12-23T15:12:34.436Z,96994.38
2022-12-23T15:15:07.460Z,96986.41
2022-12-23T15:17:36.453Z,96997.38
2022-12-23T15:20:24.409Z,96993.22
2022-12-23T15:22:52.822Z,97003.31
2022-12-23T15:25:27.673Z,97001.66
2022-12-23T15:28:01.471Z,97000.50
2022-12-23T15:30:34.687Z,97002.63
2022-12-23T15:33:21.838Z,96997.88
2022-12-23T15:35:54.480Z,97013.22
2022-12-23T15:38:24.811Z,97004.03
2022-12-23T15:41:06.408Z,97002.41
2022-12-23T15:43:33.328Z,97004.31
2022-12-23T15:46:15.972Z,97003.72
2022-12-23T15:48:43.262Z,97009.19
2022-12-23T15:51:49.557Z,97004.31
2022-12-23T15:54:08.802Z,97007.38
2022-12-23T15:56:38.954Z,97005.00
2022-12-23T15:59:06.154Z,97007.38
2022-12-23T16:01:42.225Z,97010.38
2022-12-23T16:04:18.220Z,97007.97
2022-12-23T16:06:50.603Z,97010.97
2022-12-23T16:09:58.920Z,97010.00
2022-12-23T16:15:29.297Z,97016.50
2022-12-23T16:18:12.449Z,97021.06
2022-12-23T16:20:43.809Z,97024.31
2022-12-23T16:23:12.970Z,97011.50
2022-12-23T16:25:44.112Z,97025.66
2022-12-23T16:28:21.744Z,97025.97
2022-12-23T16:30:52.770Z,97025.44
2022-12-23T16:33:37.631Z,97026.56
2022-12-23T16:36:26.631Z,97034.41
2022-12-23T16:39:21.876Z,97041.44
2022-12-23T16:41:50.209Z,97040.38
2022-12-23T16:44:17.247Z,97033.81
2022-12-23T16:46:47.488Z,97040.38
2022-12-23T16:49:27.922Z,97035.38
2022-12-23T16:51:56.706Z,97036.31
2022-12-23T16:54:23.556Z,97034.84
2022-12-23T16:56:50.772Z,97044.06
2022-12-23T16:59:17.810Z,97050.19
2022-12-23T17:01:49.504Z,97052.31
2022-12-23T17:04:17.102Z,97048.44
2022-12-23T17:06:46.874Z,97053.03
2022-12-23T17:09:14.080Z,97048.25
2022-12-23T17:11:47.524Z,97049.78
2022-12-23T17:16:52.096Z,97055.56
2022-12-23T17:19:27.218Z,97048.19
2022-12-23T17:22:02.770Z,97051.03
2022-12-23T17:24:30.679Z,97056.06
2022-12-23T17:26:58.134Z,97048.59
2022-12-23T17:29:25.135Z,97055.38
2022-12-23T17:31:53.402Z,97051.63
2022-12-23T17:34:22.783Z,97047.25
2022-12-23T17:36:51.219Z,97047.34
2022-12-23T17:39:24.243Z,97059.13
2022-12-23T17:41:51.785Z,97053.50
2022-12-23T17:44:19.356Z,97060.47
2022-12-23T17:46:47.339Z,97061.19
2022-12-23T17:49:17.505Z,97051.47
2022-12-23T17:51:45.066Z,97046.16
2022-12-23T17:54:33.713Z,97055.09
2022-12-23T17:57:01.418Z,97044.38
2022-12-23T17:59:31.893Z,97051.50
2022-12-23T18:02:00.740Z,97050.72
2022-12-23T18:04:28.351Z,97058.31
2022-12-23T18:06:56.110Z,97053.66
2022-12-23T18:09:23.724Z,97047.00
2022-12-23T18:11:51.371Z,97047.78
2022-12-23T18:14:28.315Z,97045.44
2022-12-23T18:16:56.057Z,97057.28
2022-12-23T18:19:23.762Z,97058.03
2022-12-23T18:21:52.185Z,97056.44
2022-12-23T18:24:19.909Z,97059.97
2022-12-23T18:26:48.063Z,97064.25
2022-12-23T18:29:16.243Z,97064.41
2022-12-23T18:31:51.443Z,97062.66
2022-12-23T18:34:20.390Z,97060.81
2022-12-23T18:36:48.719Z,97071.03
2022-12-23T18:39:22.248Z,97058.56
2022-12-23T18:41:49.630Z,97066.84
2022-12-23T18:44:21.779Z,97057.09
2022-12-23T18:46:50.024Z,97061.44
2022-12-23T18:49:26.528Z,97061.25
2022-12-23T18:51:54.255Z,97063.47
2022-12-23T18:54:25.439Z,97059.09
2022-12-23T18:56:52.778Z,97059.84
2022-12-23T18:59:29.336Z,97058.81
2022-12-23T19:02:01.000Z,97061.31
2022-12-23T19:04:28.864Z,97067.97
2022-12-23T19:06:58.645Z,97062.78
2022-12-23T19:09:27.151Z,97062.97
2022-12-23T19:11:54.820Z,97064.66
2022-12-23T19:14:25.244Z,97062.25
2022-12-23T19:16:53.160Z,97059.84
2022-12-23T19:19:22.400Z,97062.97
2022-12-23T19:21:50.046Z,97057.78
2022-12-23T19:24:20.819Z,97065.38
2022-12-23T19:26:49.212Z,97063.81
2022-12-23T19:29:16.960Z,97063.91
2022-12-23T19:31:47.989Z,97057.97
2022-12-23T19:34:16.166Z,97059.66
2022-12-23T19:36:47.560Z,97066.50
2022-12-23T19:39:17.391Z,97066.81
2022-12-23T19:41:45.637Z,97067.09
2022-12-23T19:44:13.796Z,97058.03
2022-12-23T19:46:44.047Z,97058.22
2022-12-23T19:49:17.763Z,97055.16
2022-12-23T19:51:50.499Z,97059.69
2022-12-23T19:54:19.375Z,97058.03
2022-12-23T19:56:49.870Z,97051.16
2022-12-23T19:59:21.940Z,97042.25
2022-12-23T20:01:50.791Z,97050.88
2022-12-23T20:04:19.157Z,97050.97
2022-12-23T20:07:05.862Z,97050.88
2022-12-23T20:09:33.931Z,97041.22
2022-12-23T20:12:02.012Z,97035.00
2022-12-23T20:14:33.795Z,97036.13
2022-12-23T20:17:04.881Z,97047.06
2022-12-23T20:19:33.132Z,97038.31
2022-12-23T20:22:06.022Z,97040.91
2022-12-23T20:24:37.020Z,97042.81
2022-12-23T20:27:10.650Z,97053.28
2022-12-23T20:29:39.247Z,97042.03
2022-12-23T20:32:07.414Z,97046.34
2022-12-23T20:34:39.589Z,97043.63
2022-12-23T20:37:08.959Z,97042.69
2022-12-23T20:39:42.825Z,97037.22
2022-12-23T20:42:13.283Z,97031.28
2022-12-23T20:44:41.935Z,97040.00
2022-12-23T20:47:09.920Z,97047.34
2022-12-23T20:49:37.173Z,97044.28
2022-12-23T20:52:05.961Z,97043.00
2022-12-23T20:54:34.150Z,97050.06
2022-12-23T20:57:02.544Z,97055.63
2022-12-23T20:59:30.548Z,97056.94
2022-12-23T21:01:59.847Z,97062.59
2022-12-23T21:04:27.661Z,97054.22
2022-12-23T21:06:55.036Z,97055.44
2022-12-23T21:09:22.446Z,97054.91
2022-12-23T21:11:50.465Z,97056.09
2022-12-23T21:14:17.840Z,97057.22
2022-12-23T21:16:45.444Z,97059.88
2022-12-23T21:19:19.473Z,97056.72
2022-12-23T21:21:52.328Z,97054.41
2022-12-23T21:24:21.915Z,97054.88
2022-12-23T21:26:56.738Z,97059.66
2022-12-23T21:29:25.434Z,97053.19
2022-12-23T21:31:53.191Z,97051.66
2022-12-23T21:34:20.954Z,97043.31
2022-12-23T21:36:53.787Z,97055.72
2022-12-23T21:39:21.215Z,97058.66
2022-12-23T21:41:51.564Z,97053.75
2022-12-23T21:44:19.264Z,97046.81
2022-12-23T21:46:47.086Z,97045.22
2022-12-23T21:49:14.551Z,97048.56
2022-12-23T21:51:42.318Z,97046.41
2022-12-23T21:54:13.116Z,97048.28
2022-12-23T21:56:42.053Z,97047.44
2022-12-23T21:59:13.336Z,97047.63
2022-12-23T22:01:41.763Z,97032.22
2022-12-23T22:04:09.550Z,97041.09
2022-12-23T22:06:39.579Z,97041.28
2022-12-23T22:09:08.582Z,97037.91
2022-12-23T22:11:37.172Z,97039.13
2022-12-23T22:14:07.318Z,97040.19
2022-12-23T22:16:36.132Z,97045.38
2022-12-23T22:19:05.647Z,97045.63
2022-12-23T22:21:34.645Z,97052.50
2022-12-23T22:24:03.398Z,97047.47
2022-12-23T22:26:32.886Z,97054.31
2022-12-23T22:29:02.913Z,97053.38
2022-12-23T22:31:52.080Z,97054.47
2022-12-23T22:34:21.303Z,97061.00
2022-12-23T22:36:49.778Z,97066.63
2022-12-23T22:39:21.431Z,97059.84
2022-12-23T22:41:51.256Z,97065.53
2022-12-23T22:44:19.276Z,97069.25
2022-12-23T22:46:47.120Z,97071.44
2022-12-23T22:49:16.716Z,97068.84
2022-12-23T22:51:45.519Z,97065.31
2022-12-23T22:54:13.771Z,97068.69
2022-12-23T22:56:44.412Z,97071.19
2022-12-23T22:59:23.212Z,97069.78
2022-12-23T23:01:51.899Z,97071.34
2022-12-23T23:04:20.002Z,97064.59
2022-12-23T23:06:48.007Z,97067.19
2022-12-23T23:09:17.005Z,97066.31
2022-12-23T23:11:48.549Z,97065.81
2022-12-23T23:14:20.530Z,97059.31
2022-12-23T23:16:48.494Z,97061.94
2022-12-23T23:19:22.444Z,97058.47
2022-12-23T23:21:50.331Z,97058.69
2022-12-23T23:24:24.105Z,97052.63
2022-12-23T23:26:56.192Z,97048.75
2022-12-23T23:29:33.190Z,97053.09
2022-12-23T23:32:01.200Z,97050.50
2022-12-23T23:34:31.895Z,97050.44
2022-12-23T23:37:02.487Z,97049.56
2022-12-23T23:39:30.108Z,97047.91
2022-12-23T23:41:57.434Z,97040.91
2022-12-23T23:44:24.665Z,97055.94
2022-12-23T23:46:52.599Z,97054.44
2022-12-23T23:49:21.750Z,97051.06
2022-12-23T23:51:50.405Z,97050.81
2022-12-23T23:54:23.134Z,97059.66
2022-12-23T23:56:51.323Z,97060.41
2022-12-23T23:59:18.854Z,97062.06
